Time;durP1;ratioP1;P1;durP2;ratioP2;P2;SDS_P1;SDS_P2;PMS_P1;PMS_P2;Temp;Humidity;BMP_temperature;BMP_pressure;BME280_temperature;BME280_humidity;BME280_pressure;Samples;Min_cycle;Max_cycle;Signal;HPM_P1;HPM_P2
2021/12/22 00:01:39;;;;;;;19.85;10.38;;;-1.70;99.90;;;;;;4958702;28;20066;-84
2021/12/22 00:04:05;;;;;;;14.35;7.85;;;-1.80;99.90;;;;;;4969023;28;20047;-84
2021/12/22 00:06:33;;;;;;;19.95;10.27;;;-1.80;99.90;;;;;;4972231;28;20041;-84
2021/12/22 00:08:59;;;;;;;18.45;10.75;;;-1.80;99.90;;;;;;4972080;28;20046;-84
2021/12/22 00:11:29;;;;;;;18.15;9.75;;;-1.80;99.90;;;;;;4973289;28;20050;-84
2021/12/22 00:13:54;;;;;;;18.83;9.57;;;-1.80;99.90;;;;;;4972449;28;20050;-85
2021/12/22 00:16:20;;;;;;;18.70;9.25;;;-1.90;99.90;;;;;;4968689;28;20066;-84
2021/12/22 00:18:45;;;;;;;16.45;9.65;;;-1.90;99.90;;;;;;4971289;28;20389;-84
2021/12/22 00:21:11;;;;;;;18.27;9.57;;;-1.90;99.90;;;;;;4956547;28;20062;-84
2021/12/22 00:23:38;;;;;;;17.83;8.88;;;-1.90;99.90;;;;;;4973614;28;20043;-84
2021/12/22 00:26:04;;;;;;;21.25;10.88;;;-1.90;99.90;;;;;;4972320;28;20051;-84
2021/12/22 00:28:32;;;;;;;18.65;7.90;;;-1.90;99.90;;;;;;4985414;28;20030;-84
2021/12/22 00:30:57;;;;;;;18.95;10.30;;;-1.90;99.90;;;;;;4973084;28;20042;-84
2021/12/22 00:33:23;;;;;;;16.30;8.45;;;-1.90;99.90;;;;;;4972485;28;20042;-84
2021/12/22 00:35:49;;;;;;;19.83;9.70;;;-1.90;99.90;;;;;;4974668;28;20054;-84
2021/12/22 00:38:17;;;;;;;18.92;9.10;;;-1.90;99.90;;;;;;4971876;28;20055;-84
2021/12/22 00:40:44;;;;;;;16.60;9.07;;;-1.90;99.90;;;;;;4954953;28;20042;-84
2021/12/22 00:43:10;;;;;;;11.38;6.10;;;-1.90;99.90;;;;;;4971828;28;20073;-84
2021/12/22 00:45:36;;;;;;;14.88;8.27;;;-1.90;99.90;;;;;;4970457;28;20039;-84
2021/12/22 00:48:05;;;;;;;20.75;9.25;;;-1.90;99.90;;;;;;4966780;28;20098;-84
2021/12/22 00:50:32;;;;;;;16.73;7.85;;;-1.90;99.90;;;;;;4970944;28;20507;-84
2021/12/22 00:52:57;;;;;;;13.35;6.97;;;-1.90;99.90;;;;;;4971762;28;20640;-84
2021/12/22 00:55:23;;;;;;;16.88;8.30;;;-2.00;99.90;;;;;;4969610;28;20042;-84
2021/12/22 00:57:50;;;;;;;18.83;8.68;;;-2.00;99.90;;;;;;4971723;28;20034;-84
2021/12/22 01:00:18;;;;;;;17.42;8.50;;;-2.00;99.90;;;;;;4954498;28;20073;-84
2021/12/22 01:02:44;;;;;;;15.57;7.82;;;-2.00;99.90;;;;;;4985971;28;20085;-84
2021/12/22 01:05:12;;;;;;;18.52;8.48;;;-2.00;99.90;;;;;;4952239;28;20041;-84
2021/12/22 01:07:39;;;;;;;17.92;9.18;;;-2.10;99.90;;;;;;4973485;28;20038;-84
2021/12/22 01:10:06;;;;;;;21.00;9.68;;;-2.10;99.90;;;;;;4971829;28;20420;-84
2021/12/22 01:12:31;;;;;;;15.77;8.10;;;-2.10;99.90;;;;;;4972193;28;20051;-84
2021/12/22 01:14:57;;;;;;;15.90;7.68;;;-2.10;99.90;;;;;;4971892;28;20041;-84
2021/12/22 01:17:23;;;;;;;17.13;8.77;;;-2.10;99.90;;;;;;4969342;28;20161;-84
2021/12/22 01:20:03;;;;;;;14.20;7.32;;;-2.20;99.90;;;;;;4954014;28;20060;-85
2021/12/22 01:22:47;;;;;;;15.27;7.65;;;-2.20;99.90;;;;;;4984428;28;20042;-85
2021/12/22 01:25:16;;;;;;;16.83;7.22;;;-2.20;99.90;;;;;;4969863;28;20045;-84
2021/12/22 01:27:43;;;;;;;16.67;9.35;;;-2.20;99.90;;;;;;4971810;28;20050;-84
2021/12/22 01:30:22;;;;;;;19.23;9.60;;;-2.20;99.90;;;;;;4968746;28;20038;-84
2021/12/22 01:32:51;;;;;;;20.55;9.63;;;-2.20;99.90;;;;;;4971848;28;20113;-84
2021/12/22 01:35:20;;;;;;;18.15;9.68;;;-2.20;99.90;;;;;;4970141;28;21503;-85
2021/12/22 01:37:46;;;;;;;17.88;9.25;;;-2.30;99.90;;;;;;4969545;28;20070;-85
2021/12/22 01:40:13;;;;;;;20.13;10.00;;;-2.20;99.90;;;;;;4970915;28;20034;-84
2021/12/22 01:42:39;;;;;;;17.83;8.85;;;-2.30;99.90;;;;;;4966502;28;20035;-84
2021/12/22 01:45:36;;;;;;;18.48;9.00;;;-2.30;99.90;;;;;;4970401;28;20049;-84
2021/12/22 01:50:50;;;;;;;18.38;9.48;;;-2.30;99.90;;;;;;4984694;28;20112;-84
2021/12/22 01:53:22;;;;;;;18.23;9.27;;;-2.30;99.90;;;;;;4970215;28;20053;-84
2021/12/22 01:56:10;;;;;;;15.57;8.17;;;-2.30;99.90;;;;;;4969881;28;20049;-85
2021/12/22 01:58:41;;;;;;;15.55;8.43;;;-2.30;99.90;;;;;;4949173;28;20043;-84
2021/12/22 02:01:07;;;;;;;18.45;9.10;;;-2.30;99.90;;;;;;4952726;28;20064;-84
2021/12/22 02:03:33;;;;;;;21.95;9.60;;;-2.30;99.90;;;;;;4952873;28;20429;-84
2021/12/22 02:05:59;;;;;;;17.13;8.98;;;-2.30;99.90;;;;;;4968718;28;20077;-85
2021/12/22 02:08:25;;;;;;;20.10;9.32;;;-2.30;99.90;;;;;;4988384;28;20042;-85
2021/12/22 02:10:51;;;;;;;21.05;9.07;;;-2.30;99.90;;;;;;4969608;28;20039;-85
2021/12/22 02:13:23;;;;;;;18.30;8.77;;;-2.30;99.90;;;;;;4970278;28;20102;-84
2021/12/22 02:15:49;;;;;;;;;;;-2.40;99.90;;;;;;4971530;28;20457;-84
2021/12/22 02:18:20;;;;;;;15.88;7.82;;;-2.40;99.90;;;;;;4971526;28;19932;-85
2021/12/22 02:20:49;;;;;;;19.27;9.13;;;-2.40;99.90;;;;;;4970759;28;20039;-84
2021/12/22 02:23:15;;;;;;;16.23;8.98;;;-2.40;99.90;;;;;;4966871;28;20051;-85
2021/12/22 02:25:48;;;;;;;18.88;9.57;;;-2.40;99.90;;;;;;4951897;28;20078;-84
2021/12/22 02:28:22;;;;;;;17.70;7.72;;;-2.50;99.90;;;;;;4969304;28;20039;-84
2021/12/22 02:30:48;;;;;;;18.25;9.07;;;-2.50;99.90;;;;;;4969137;28;20477;-84
2021/12/22 02:35:54;;;;;;;17.13;8.93;;;-2.50;99.90;;;;;;4970428;28;20408;-84
2021/12/22 02:38:20;;;;;;;20.20;8.25;;;-2.50;99.90;;;;;;4962951;28;20051;-84
2021/12/22 02:40:48;;;;;;;16.65;9.07;;;-2.50;99.90;;;;;;4969247;28;20054;-84
2021/12/22 02:43:20;;;;;;;19.73;9.73;;;-2.50;99.90;;;;;;4969874;28;20401;-84
2021/12/22 02:45:46;;;;;;;18.98;8.55;;;-2.60;99.90;;;;;;4954594;28;20393;-84
2021/12/22 02:48:12;;;;;;;15.80;9.02;;;-2.50;99.90;;;;;;4971473;28;20055;-84
2021/12/22 02:50:40;;;;;;;22.63;10.77;;;-2.60;99.90;;;;;;4969050;28;20046;-84
2021/12/22 02:53:13;;;;;;;17.75;8.80;;;-2.60;99.90;;;;;;4967668;28;20047;-84
2021/12/22 02:55:57;;;;;;;20.55;8.50;;;-2.60;99.90;;;;;;4968859;28;20433;-84
2021/12/22 03:03:59;;;;;;;18.35;8.82;;;-2.70;99.90;;;;;;4970114;28;20054;-84
2021/12/22 03:06:33;;;;;;;17.83;8.70;;;-2.70;99.90;;;;;;4970335;28;20049;-84
2021/12/22 03:09:00;;;;;;;16.20;8.13;;;-2.70;99.90;;;;;;4954085;28;20065;-84
2021/12/22 03:11:25;;;;;;;17.23;8.70;;;-2.70;99.90;;;;;;4971130;28;20495;-85
2021/12/22 03:13:51;;;;;;;17.33;8.65;;;-2.70;99.90;;;;;;4971199;28;20038;-84
2021/12/22 03:16:18;;;;;;;18.40;8.48;;;-2.70;99.90;;;;;;4969657;28;20035;-85
2021/12/22 03:18:44;;;;;;;21.05;9.30;;;-2.70;99.90;;;;;;4969984;28;20043;-85
2021/12/22 03:21:21;;;;;;;20.08;8.95;;;-2.70;99.90;;;;;;4968680;28;20038;-85
2021/12/22 03:23:49;;;;;;;20.17;8.90;;;-2.70;99.90;;;;;;4968108;28;20050;-84
2021/12/22 03:26:16;;;;;;;16.15;8.27;;;-2.80;99.90;;;;;;4955695;28;20058;-84
2021/12/22 03:28:44;;;;;;;17.05;8.43;;;-2.80;99.90;;;;;;4986959;28;20031;-84
2021/12/22 03:31:10;;;;;;;19.92;8.93;;;-2.80;99.90;;;;;;4984891;28;20046;-84
2021/12/22 03:33:35;;;;;;;17.75;8.18;;;-2.80;99.90;;;;;;4970196;28;20054;-84
2021/12/22 03:36:01;;;;;;;16.08;7.78;;;-2.80;99.90;;;;;;4969110;28;20046;-85
2021/12/22 03:38:27;;;;;;;17.10;8.50;;;-2.80;99.90;;;;;;4965248;28;20122;-84
2021/12/22 03:40:53;;;;;;;17.60;9.25;;;-2.90;99.90;;;;;;4971209;28;20074;-84
2021/12/22 03:43:18;;;;;;;18.00;8.65;;;-2.90;99.90;;;;;;4972092;28;20034;-84
2021/12/22 03:45:44;;;;;;;17.35;8.77;;;-2.90;99.90;;;;;;4971876;28;20109;-85
2021/12/22 03:48:10;;;;;;;17.20;8.68;;;-2.90;99.90;;;;;;4972739;28;20055;-84
2021/12/22 03:50:35;;;;;;;20.63;8.75;;;-2.90;99.90;;;;;;4973366;28;20460;-84
2021/12/22 03:53:01;;;;;;;22.80;9.07;;;-3.00;99.90;;;;;;4973352;28;20452;-85
2021/12/22 03:55:27;;;;;;;16.52;8.60;;;-3.00;99.90;;;;;;4971097;28;20038;-84
2021/12/22 03:57:52;;;;;;;16.95;8.93;;;-3.00;99.90;;;;;;4973816;28;20121;-84
2021/12/22 04:00:18;;;;;;;19.88;9.15;;;-3.00;99.90;;;;;;4971944;28;20045;-84
2021/12/22 04:02:44;;;;;;;18.38;8.70;;;-3.00;99.90;;;;;;4972978;28;20031;-84
2021/12/22 04:05:10;;;;;;;18.75;8.13;;;-3.00;99.90;;;;;;4955595;28;20457;-84
2021/12/22 04:07:36;;;;;;;19.02;8.88;;;-3.00;99.90;;;;;;4952726;28;20055;-83
2021/12/22 04:10:18;;;;;;;18.20;8.82;;;-3.10;99.90;;;;;;4971038;28;20045;-84
2021/12/22 04:12:44;;;;;;;17.25;8.75;;;-3.10;99.90;;;;;;4958327;28;20123;-83
2021/12/22 04:15:10;;;;;;;16.42;8.18;;;-3.10;99.90;;;;;;4974433;28;20078;-84
2021/12/22 04:17:35;;;;;;;21.58;8.65;;;-3.10;99.90;;;;;;4956008;28;20065;-84
2021/12/22 04:20:01;;;;;;;19.17;8.20;;;-3.10;99.90;;;;;;4970986;28;20035;-85
2021/12/22 04:22:26;;;;;;;20.30;8.85;;;-3.10;99.90;;;;;;4971179;28;20129;-84
2021/12/22 04:24:52;;;;;;;15.80;8.70;;;-3.20;99.90;;;;;;4969059;28;20034;-84
2021/12/22 04:27:18;;;;;;;15.52;7.53;;;-3.20;99.90;;;;;;4971397;28;20031;-84
2021/12/22 04:29:43;;;;;;;18.67;8.55;;;-3.20;99.90;;;;;;4957823;28;20532;-84
2021/12/22 04:32:09;;;;;;;17.27;8.48;;;-3.20;99.90;;;;;;4966249;28;20039;-84
2021/12/22 04:34:34;;;;;;;19.52;9.27;;;-3.20;99.90;;;;;;4953530;28;20084;-84
2021/12/22 04:37:00;;;;;;;15.43;8.07;;;-3.20;99.90;;;;;;4972333;28;20046;-84
2021/12/22 04:39:27;;;;;;;17.73;8.32;;;-3.20;99.90;;;;;;4970885;28;20488;-84
2021/12/22 04:41:52;;;;;;;18.10;8.40;;;-3.20;99.90;;;;;;4970983;28;20039;-84
2021/12/22 04:44:18;;;;;;;19.55;9.23;;;-3.20;99.90;;;;;;4953760;28;20036;-84
2021/12/22 04:46:43;;;;;;;20.30;8.30;;;-3.20;99.90;;;;;;4972138;28;20117;-84
2021/12/22 04:49:09;;;;;;;18.15;8.95;;;-3.20;99.90;;;;;;4970860;28;20142;-84
2021/12/22 04:51:36;;;;;;;17.35;9.05;;;-3.20;99.90;;;;;;4969727;28;20097;-83
2021/12/22 04:56:29;;;;;;;17.95;9.00;;;-3.20;99.90;;;;;;4966998;28;20042;-84
2021/12/22 04:58:54;;;;;;;19.38;9.20;;;-3.20;99.90;;;;;;4970576;28;20054;-84
2021/12/22 05:01:20;;;;;;;22.52;9.35;;;-3.20;99.90;;;;;;4971791;28;20411;-84
2021/12/22 05:03:46;;;;;;;18.10;8.15;;;-3.20;99.90;;;;;;4971292;28;20041;-84
2021/12/22 05:06:11;;;;;;;17.42;8.35;;;-3.20;99.90;;;;;;4971959;28;20057;-84
2021/12/22 05:08:37;;;;;;;17.42;8.93;;;-3.20;99.90;;;;;;4969924;28;20046;-84
2021/12/22 05:11:03;;;;;;;16.80;8.07;;;-3.30;99.90;;;;;;4971881;28;20046;-84
2021/12/22 05:13:29;;;;;;;18.20;8.63;;;-3.30;99.90;;;;;;4972953;28;20039;-84
2021/12/22 05:15:55;;;;;;;21.67;8.50;;;-3.30;99.90;;;;;;4972081;28;20472;-84
2021/12/22 05:18:24;;;;;;;17.38;8.35;;;-3.30;99.90;;;;;;4970860;28;20042;-84
2021/12/22 05:20:51;;;;;;;17.35;8.32;;;-3.30;99.90;;;;;;4969438;28;20035;-84
2021/12/22 05:23:17;;;;;;;21.65;9.45;;;-3.30;99.90;;;;;;4973485;28;20153;-84
2021/12/22 05:25:43;;;;;;;17.85;8.82;;;-3.30;99.90;;;;;;4971312;28;20063;-84
2021/12/22 05:28:08;;;;;;;20.83;8.48;;;-3.30;99.90;;;;;;4973845;28;20062;-84
2021/12/22 05:30:35;;;;;;;17.90;8.20;;;-3.40;99.90;;;;;;4969843;28;20090;-84
2021/12/22 05:33:01;;;;;;;21.75;9.40;;;-3.40;99.90;;;;;;4970406;28;20080;-84
2021/12/22 05:35:26;;;;;;;16.95;7.80;;;-3.40;99.90;;;;;;4988737;28;20388;-84
2021/12/22 05:37:52;;;;;;;19.02;8.77;;;-3.40;99.90;;;;;;4972846;28;20520;-84
2021/12/22 05:40:18;;;;;;;17.95;8.35;;;-3.40;99.90;;;;;;4969601;28;20122;-84
2021/12/22 05:42:44;;;;;;;20.20;9.15;;;-3.40;99.90;;;;;;4972270;28;20571;-84
2021/12/22 05:45:09;;;;;;;17.63;7.82;;;-3.40;99.90;;;;;;4970244;28;20019;-84
2021/12/22 05:47:35;;;;;;;21.30;9.45;;;-3.40;99.90;;;;;;4968444;28;20054;-84
2021/12/22 05:50:03;;;;;;;19.52;8.52;;;-3.40;99.90;;;;;;4955647;28;20045;-85
2021/12/22 05:52:29;;;;;;;18.48;8.05;;;-3.40;99.90;;;;;;4969866;28;20085;-84
2021/12/22 05:54:55;;;;;;;17.08;7.47;;;-3.40;99.90;;;;;;4964405;28;20043;-84
2021/12/22 05:57:21;;;;;;;17.08;7.82;;;-3.40;99.90;;;;;;4968357;28;20421;-84
2021/12/22 05:59:46;;;;;;;18.48;8.30;;;-3.40;99.90;;;;;;4956233;28;20062;-84
2021/12/22 06:02:12;;;;;;;17.73;8.15;;;-3.40;99.90;;;;;;4969487;28;20085;-84
2021/12/22 06:04:37;;;;;;;21.58;8.57;;;-3.30;99.90;;;;;;4972141;28;20070;-84
2021/12/22 06:07:03;;;;;;;27.23;10.10;;;-3.30;99.90;;;;;;4971663;28;20046;-84
2021/12/22 06:09:29;;;;;;;17.00;8.95;;;-3.30;99.90;;;;;;4953624;28;20106;-84
2021/12/22 06:11:54;;;;;;;18.17;8.05;;;-3.30;99.90;;;;;;4972541;28;20547;-84
2021/12/22 06:14:20;;;;;;;19.10;8.35;;;-3.30;99.90;;;;;;4971047;28;20547;-84
2021/12/22 06:16:46;;;;;;;18.42;8.98;;;-3.30;99.90;;;;;;4971207;28;20047;-84
2021/12/22 06:19:13;;;;;;;20.67;9.18;;;-3.30;99.90;;;;;;4971443;28;20121;-84
2021/12/22 06:21:39;;;;;;;19.30;9.07;;;-3.30;99.90;;;;;;4956159;28;20035;-84
2021/12/22 06:24:04;;;;;;;17.88;8.27;;;-3.30;99.90;;;;;;4970989;28;20054;-84
2021/12/22 06:26:30;;;;;;;19.73;9.27;;;-3.30;99.90;;;;;;4970304;28;20035;-84
2021/12/22 06:28:56;;;;;;;21.98;8.70;;;-3.30;99.90;;;;;;4969467;28;20042;-83
2021/12/22 06:31:21;;;;;;;18.58;8.65;;;-3.30;99.90;;;;;;4954142;28;20046;-84
2021/12/22 06:33:47;;;;;;;16.70;6.95;;;-3.30;99.90;;;;;;4955385;28;20081;-84
2021/12/22 06:36:13;;;;;;;22.10;9.00;;;-3.30;99.90;;;;;;4955029;28;20515;-84
2021/12/22 06:38:39;;;;;;;19.98;8.90;;;-3.30;99.90;;;;;;4953958;28;20049;-84
2021/12/22 06:41:06;;;;;;;19.30;7.82;;;-3.30;99.90;;;;;;4970838;28;20288;-84
2021/12/22 06:43:32;;;;;;;21.83;8.18;;;-3.30;99.90;;;;;;4972094;28;20046;-84
2021/12/22 06:45:57;;;;;;;16.23;7.65;;;-3.30;99.90;;;;;;4968507;28;20043;-84
2021/12/22 06:48:23;;;;;;;19.63;8.40;;;-3.30;99.90;;;;;;4969160;28;20570;-84
2021/12/22 06:50:49;;;;;;;15.77;6.90;;;-3.30;99.90;;;;;;4970218;28;20035;-84
2021/12/22 06:53:14;;;;;;;16.60;8.65;;;-3.30;99.90;;;;;;4969104;28;20066;-84
2021/12/22 06:55:40;;;;;;;17.35;7.88;;;-3.40;99.90;;;;;;4971916;28;20038;-83
2021/12/22 06:58:05;;;;;;;16.45;8.45;;;-3.40;99.90;;;;;;4972537;28;20042;-84
2021/12/22 07:00:31;;;;;;;17.90;7.63;;;-3.40;99.90;;;;;;4971689;28;20098;-84
2021/12/22 07:02:58;;;;;;;16.60;8.68;;;-3.40;99.90;;;;;;4972790;28;20047;-84
2021/12/22 07:05:24;;;;;;;18.75;8.52;;;-3.50;99.90;;;;;;4967024;28;20412;-84
2021/12/22 07:07:49;;;;;;;21.17;8.50;;;-3.50;99.90;;;;;;4956503;28;20039;-84
2021/12/22 07:10:16;;;;;;;18.85;8.30;;;-3.50;99.90;;;;;;4971662;28;20047;-84
2021/12/22 07:12:46;;;;;;;17.50;7.93;;;-3.50;99.90;;;;;;4955322;28;20116;-84
2021/12/22 07:15:14;;;;;;;17.15;8.18;;;-3.50;99.90;;;;;;4967703;28;20070;-83
2021/12/22 07:17:45;;;;;;;18.25;8.15;;;-3.50;99.90;;;;;;4969653;28;20038;-84
2021/12/22 07:20:12;;;;;;;18.17;7.78;;;-3.50;99.90;;;;;;4953523;28;20218;-84
2021/12/22 07:22:38;;;;;;;17.25;8.52;;;-3.50;99.90;;;;;;4974676;28;20045;-83
2021/12/22 07:25:05;;;;;;;20.60;8.95;;;-3.50;99.90;;;;;;4973788;28;20050;-84
2021/12/22 07:27:31;;;;;;;22.48;8.75;;;-3.50;99.90;;;;;;4970333;28;20085;-83
2021/12/22 07:29:57;;;;;;;20.92;8.60;;;-3.50;99.90;;;;;;4974826;28;20047;-83
2021/12/22 07:32:22;;;;;;;21.92;8.43;;;-3.50;99.90;;;;;;4973692;28;20058;-83
2021/12/22 07:35:00;;;;;;;18.10;8.55;;;-3.60;99.90;;;;;;4956790;28;20053;-83
2021/12/22 07:37:38;;;;;;;18.75;8.32;;;-3.60;99.90;;;;;;4955711;28;20081;-83
2021/12/22 07:40:06;;;;;;;17.02;7.57;;;-3.60;99.90;;;;;;4968251;28;20050;-83
2021/12/22 07:42:40;;;;;;;20.65;8.05;;;-3.60;99.90;;;;;;4974443;22;20023;-84
2021/12/22 07:45:09;;;;;;;18.52;8.95;;;-3.60;99.90;;;;;;5036635;28;20108;-84
2021/12/22 07:47:36;;;;;;;20.90;7.93;;;-3.60;99.90;;;;;;5016207;28;20050;-84
2021/12/22 07:50:02;;;;;;;17.60;7.93;;;-3.60;99.90;;;;;;4997742;28;20382;-84
2021/12/22 07:52:29;;;;;;;19.05;8.02;;;-3.60;99.90;;;;;;5022634;28;20064;-84
2021/12/22 07:54:55;;;;;;;19.60;8.63;;;-3.60;99.90;;;;;;4998719;28;20037;-83
2021/12/22 07:57:21;;;;;;;18.63;8.40;;;-3.60;99.90;;;;;;5006068;28;20041;-84
2021/12/22 07:59:47;;;;;;;17.73;8.20;;;-3.60;99.90;;;;;;5018901;28;20041;-83
2021/12/22 08:02:12;;;;;;;16.40;7.47;;;-3.60;99.90;;;;;;4996096;28;20081;-84
2021/12/22 08:04:39;;;;;;;17.52;7.43;;;-3.60;99.90;;;;;;5017844;28;20069;-84
2021/12/22 08:07:05;;;;;;;16.73;7.75;;;-3.60;99.90;;;;;;4997337;28;20053;-84
2021/12/22 08:09:31;;;;;;;19.15;8.23;;;-3.60;99.90;;;;;;4998153;28;20376;-83
2021/12/22 08:12:04;;;;;;;20.17;7.60;;;-3.60;99.90;;;;;;4998704;28;20491;-83
2021/12/22 08:14:37;;;;;;;17.02;8.13;;;-3.50;99.90;;;;;;4999679;28;20041;-83
2021/12/22 08:17:03;;;;;;;20.33;8.50;;;-3.50;99.90;;;;;;5011985;28;20056;-83
2021/12/22 08:19:29;;;;;;;18.25;7.78;;;-3.50;99.90;;;;;;5013965;28;20037;-84
2021/12/22 08:21:55;;;;;;;22.60;7.88;;;-3.50;99.90;;;;;;4998531;28;20072;-83
2021/12/22 08:24:21;;;;;;;18.05;8.38;;;-3.50;99.90;;;;;;5014822;28;20125;-83
2021/12/22 08:26:47;;;;;;;16.67;7.88;;;-3.40;99.90;;;;;;5013510;28;20076;-83
2021/12/22 08:29:13;;;;;;;20.65;8.25;;;-3.40;99.90;;;;;;5013776;28;20068;-83
2021/12/22 08:31:39;;;;;;;17.15;7.15;;;-3.40;99.90;;;;;;5013460;28;20045;-83
2021/12/22 08:34:06;;;;;;;20.85;8.43;;;-3.40;99.90;;;;;;4995560;28;20052;-84
2021/12/22 08:39:16;;;;;;;18.23;8.45;;;-3.30;99.90;;;;;;5011649;28;21187;-85
2021/12/22 08:41:47;;;;;;;17.23;7.47;;;-3.30;99.90;;;;;;5013338;28;20037;-84
2021/12/22 08:44:15;;;;;;;16.92;7.75;;;-3.30;99.90;;;;;;5032093;28;20573;-85
2021/12/22 08:46:43;;;;;;;17.67;7.55;;;-3.20;99.90;;;;;;4997676;28;20049;-84
2021/12/22 08:49:09;;;;;;;16.13;7.20;;;-3.20;99.90;;;;;;5009429;28;20041;-84
2021/12/22 08:51:35;;;;;;;19.15;7.55;;;-3.20;99.90;;;;;;4994654;28;20056;-84
2021/12/22 08:54:01;;;;;;;19.42;7.90;;;-3.10;99.90;;;;;;5009811;28;20129;-83
2021/12/22 08:56:29;;;;;;;22.73;8.50;;;-3.10;99.90;;;;;;5010972;28;20442;-84
2021/12/22 08:58:54;;;;;;;19.92;8.88;;;-3.10;99.90;;;;;;5015163;28;20052;-84
2021/12/22 09:01:22;;;;;;;16.73;7.75;;;-3.00;99.90;;;;;;4995343;28;20045;-84
2021/12/22 09:03:47;;;;;;;17.52;7.53;;;-3.00;99.90;;;;;;5008446;28;20029;-84
2021/12/22 09:06:14;;;;;;;18.88;8.25;;;-2.90;99.90;;;;;;4994686;28;20124;-84
2021/12/22 09:08:41;;;;;;;18.35;7.57;;;-2.90;99.90;;;;;;4993061;28;20533;-84
2021/12/22 09:11:07;;;;;;;16.05;7.43;;;-2.90;99.90;;;;;;5009576;28;20128;-84
2021/12/22 09:13:35;;;;;;;20.08;8.20;;;-2.90;99.90;;;;;;5027911;28;20120;-84
2021/12/22 09:16:01;;;;;;;16.23;7.97;;;-2.90;99.90;;;;;;5011223;28;20075;-84
2021/12/22 09:18:26;;;;;;;20.75;8.60;;;-2.80;99.90;;;;;;5013816;28;20116;-84
2021/12/22 09:23:28;;;;;;;18.27;8.32;;;-2.80;99.90;;;;;;5002860;22;1078501;-82
2021/12/22 09:25:53;;;;;;;20.00;7.03;;;-2.70;99.90;;;;;;4986740;28;20125;-83
2021/12/22 09:28:19;;;;;;;21.00;8.30;;;-2.70;99.90;;;;;;5005641;28;20108;-84
2021/12/22 09:30:45;;;;;;;16.95;7.63;;;-2.60;99.90;;;;;;4987996;28;20460;-83
2021/12/22 09:33:15;;;;;;;19.90;9.32;;;-2.60;99.90;;;;;;4973096;28;20049;-84
2021/12/22 09:35:42;;;;;;;17.95;7.45;;;-2.50;99.90;;;;;;4972422;28;20153;-84
2021/12/22 09:38:08;;;;;;;19.92;7.90;;;-2.40;99.90;;;;;;4992104;28;20042;-84
2021/12/22 09:40:34;;;;;;;17.10;7.85;;;-2.40;99.90;;;;;;4986887;28;20120;-84
2021/12/22 09:43:00;;;;;;;17.52;8.18;;;-2.30;99.90;;;;;;4995179;28;20046;-84
2021/12/22 09:45:26;;;;;;;15.25;7.45;;;-2.30;99.90;;;;;;4992780;28;21181;-84
2021/12/22 09:50:53;;;;;;;17.55;7.82;;;-2.20;99.90;;;;;;4958497;28;20095;-83
2021/12/22 09:53:22;;;;;;;17.15;7.38;;;-2.10;99.90;;;;;;4991614;28;20045;-84
2021/12/22 09:55:49;;;;;;;21.40;8.52;;;-2.10;99.90;;;;;;4990178;28;20110;-84
2021/12/22 09:58:15;;;;;;;18.50;8.25;;;-2.00;99.90;;;;;;4993769;28;20140;-84
2021/12/22 10:00:42;;;;;;;17.65;8.73;;;-1.90;99.90;;;;;;4990215;28;20037;-84
2021/12/22 10:03:15;;;;;;;18.75;7.53;;;-1.90;99.90;;;;;;4994759;28;20046;-84
2021/12/22 10:05:47;;;;;;;18.23;7.97;;;-1.80;99.90;;;;;;4985708;28;20054;-83
2021/12/22 10:08:16;;;;;;;17.70;8.35;;;-1.70;99.90;;;;;;4993326;28;20037;-84
2021/12/22 10:11:08;;;;;;;20.73;7.72;;;-1.60;99.90;;;;;;4972366;28;20037;-84
2021/12/22 10:13:35;;;;;;;16.07;7.80;;;-1.50;99.90;;;;;;4975305;28;20069;-84
2021/12/22 10:16:11;;;;;;;16.98;7.75;;;-1.40;99.90;;;;;;4992502;28;20065;-84
2021/12/22 10:18:36;;;;;;;16.45;7.57;;;-1.30;99.90;;;;;;4976484;28;20050;-84
2021/12/22 10:21:18;;;;;;;16.77;7.20;;;-1.30;99.90;;;;;;4995848;28;20034;-84
2021/12/22 10:23:47;;;;;;;15.95;6.68;;;-1.20;99.90;;;;;;4976594;28;20054;-84
2021/12/22 10:26:17;;;;;;;17.90;7.45;;;-1.20;99.90;;;;;;4976625;28;20037;-84
2021/12/22 10:28:48;;;;;;;17.40;7.63;;;-1.20;99.90;;;;;;4990336;28;20035;-85
2021/12/22 10:31:15;;;;;;;18.65;8.30;;;-1.20;99.90;;;;;;4990795;28;20144;-85
2021/12/22 10:33:42;;;;;;;19.17;8.48;;;-1.10;99.90;;;;;;4975862;28;20096;-83
2021/12/22 10:36:13;;;;;;;18.58;8.00;;;-1.10;99.90;;;;;;4974840;28;20757;-83
2021/12/22 10:38:39;;;;;;;21.70;11.77;;;-1.00;99.90;;;;;;4989363;28;20041;-84
2021/12/22 10:41:10;;;;;;;18.63;8.45;;;-1.00;99.90;;;;;;4992136;28;20354;-84
2021/12/22 10:43:46;;;;;;;21.52;9.70;;;-0.80;99.90;;;;;;4992991;28;20218;-84
2021/12/22 10:46:16;;;;;;;15.68;7.95;;;-0.60;99.90;;;;;;4992710;28;20034;-84
2021/12/22 10:51:30;;;;;;;15.57;7.47;;;-0.20;99.90;;;;;;5009433;28;20561;-84
2021/12/22 10:53:58;;;;;;;17.75;8.35;;;-0.10;99.90;;;;;;4989488;28;20048;-85
2021/12/22 10:56:32;;;;;;;18.90;7.80;;;-0.10;99.90;;;;;;4988173;28;20037;-85
2021/12/22 10:59:17;;;;;;;16.23;7.38;;;-0.10;99.90;;;;;;4974676;28;20060;-84
2021/12/22 11:01:48;;;;;;;15.90;7.82;;;-0.20;99.90;;;;;;4995292;28;20045;-84
2021/12/22 11:04:18;;;;;;;18.33;8.18;;;-0.20;99.90;;;;;;4976820;28;20041;-85
2021/12/22 11:06:44;;;;;;;17.00;7.63;;;-0.20;99.90;;;;;;5008560;28;20062;-84
2021/12/22 11:09:15;;;;;;;17.77;8.05;;;-0.20;99.90;;;;;;4977768;28;20613;-85
2021/12/22 11:11:45;;;;;;;15.57;7.63;;;-0.20;99.90;;;;;;4992580;28;20058;-85
2021/12/22 11:14:23;;;;;;;18.10;8.18;;;-0.20;99.90;;;;;;4991132;28;20081;-84
2021/12/22 11:16:58;;;;;;;15.57;7.00;;;-0.10;99.90;;;;;;4979065;28;20498;-84
2021/12/22 13:19:47;;;;;;;17.33;7.70;;;1.60;99.90;;;;;;4689609;28;20076;-84
2021/12/22 13:22:19;;;;;;;19.92;9.10;;;1.50;99.90;;;;;;4694696;30;20060;-84
2021/12/22 13:24:44;;;;;;;19.70;9.02;;;1.40;99.90;;;;;;4678860;30;20407;-84
2021/12/22 13:27:10;;;;;;;16.63;7.70;;;1.30;99.90;;;;;;4694456;30;20037;-84
2021/12/22 13:29:38;;;;;;;16.05;7.82;;;1.30;99.90;;;;;;4702549;30;20120;-84
2021/12/22 13:32:08;;;;;;;16.30;8.52;;;1.20;99.90;;;;;;4697645;30;20056;-84
2021/12/22 13:34:44;;;;;;;14.88;7.65;;;1.10;99.90;;;;;;4698256;30;20056;-84
2021/12/22 13:37:10;;;;;;;14.45;7.78;;;1.10;99.90;;;;;;4693412;30;20128;-84
2021/12/22 13:39:45;;;;;;;17.38;9.20;;;1.00;99.90;;;;;;4697593;30;20168;-84
2021/12/22 13:42:14;;;;;;;14.80;8.55;;;1.00;99.90;;;;;;4701398;30;20398;-84
2021/12/22 13:44:40;;;;;;;17.58;8.23;;;0.90;99.90;;;;;;4695192;30;20069;-84
2021/12/22 13:54:52;;;;;;;13.07;6.38;;;0.80;99.90;;;;;;4661680;28;20509;-84
2021/12/22 13:57:27;;;;;;;21.13;8.55;;;0.80;99.90;;;;;;4681479;30;20072;-84
2021/12/22 13:59:54;;;;;;;14.80;7.72;;;0.80;99.90;;;;;;4664774;30;20061;-84
2021/12/22 14:02:35;;;;;;;18.60;8.98;;;0.80;99.90;;;;;;4692045;30;20504;-84
2021/12/22 14:05:16;;;;;;;17.25;7.75;;;0.80;99.90;;;;;;4684208;30;20051;-85
2021/12/22 14:07:41;;;;;;;15.68;8.25;;;0.80;99.90;;;;;;4697203;30;20104;-83
2021/12/22 14:10:14;;;;;;;16.23;7.40;;;0.80;99.90;;;;;;4688102;30;20152;-84
2021/12/22 14:12:45;;;;;;;16.00;8.10;;;0.80;99.90;;;;;;4692687;30;20073;-84
2021/12/22 14:15:15;;;;;;;19.48;7.75;;;0.70;99.90;;;;;;4685428;30;20172;-84
2021/12/22 14:17:47;;;;;;;14.30;7.53;;;0.70;99.90;;;;;;4683280;30;20054;-84
2021/12/22 14:20:28;;;;;;;16.77;8.75;;;0.70;99.90;;;;;;4697202;30;20045;-84
2021/12/22 14:23:01;;;;;;;15.20;8.25;;;0.60;99.90;;;;;;4686186;30;20423;-84
2021/12/22 14:25:31;;;;;;;16.40;7.90;;;0.60;99.90;;;;;;4689513;30;20053;-84
2021/12/22 14:28:12;;;;;;;14.27;7.60;;;0.60;99.90;;;;;;4680359;30;20053;-84
2021/12/22 14:30:42;;;;;;;16.58;7.15;;;0.50;99.90;;;;;;4669913;30;20064;-84
2021/12/22 14:33:11;;;;;;;15.40;8.43;;;0.50;99.90;;;;;;4682017;30;20405;-84
2021/12/22 14:35:41;;;;;;;18.40;8.13;;;0.40;99.90;;;;;;4684427;30;20084;-84
2021/12/22 14:38:16;;;;;;;17.48;8.05;;;0.40;99.90;;;;;;4680677;30;20049;-84
2021/12/22 14:41:22;;;;;;;14.68;7.05;;;0.40;99.90;;;;;;4667296;30;20045;-84
2021/12/22 14:43:48;;;;;;;16.65;7.07;;;0.30;99.90;;;;;;4686760;30;20118;-86
2021/12/22 16:13:17;;;;;;;17.70;8.00;;;-0.70;99.90;;;;;;1322319;28;20054;-85
2021/12/22 16:15:42;;;;;;;18.42;8.30;;;-0.80;99.90;;;;;;4664460;30;20067;-84
2021/12/22 16:18:09;;;;;;;20.40;9.93;;;-0.80;99.90;;;;;;4667071;30;20151;-85
2021/12/22 16:20:35;;;;;;;18.42;9.05;;;-0.80;99.90;;;;;;4648183;30;20124;-85
2021/12/22 16:23:02;;;;;;;17.27;8.10;;;-0.80;99.90;;;;;;4653611;30;20387;-85
2021/12/22 16:25:29;;;;;;;21.40;8.88;;;-0.80;99.90;;;;;;4655671;30;20494;-85
2021/12/22 16:27:55;;;;;;;20.42;9.52;;;-0.80;99.90;;;;;;4651299;30;20105;-85
2021/12/22 16:30:21;;;;;;;23.95;9.13;;;-0.80;99.90;;;;;;4654041;30;20058;-85
2021/12/22 16:32:51;;;;;;;18.52;9.65;;;-0.80;99.90;;;;;;4649936;30;20101;-85
2021/12/22 16:35:35;;;;;;;19.60;9.35;;;-0.80;99.90;;;;;;4668091;30;20061;-85
2021/12/22 17:00:23;;;;;;;22.98;11.68;;;-0.80;99.90;;;;;;4631884;30;20117;-86
2021/12/22 17:02:49;;;;;;;27.55;11.93;;;-0.80;99.90;;;;;;4612270;30;20141;-86
2021/12/22 17:05:15;;;;;;;22.48;10.68;;;-0.80;99.90;;;;;;4633449;30;20174;-85